sensor_id;sensor_type;location;lat;lon;timestamp;temperature;humidity
5061;DHT22;2549;52.128;21.068;2023-03-14T00:01:16;12.90;97.50
5061;DHT22;2549;52.128;21.068;2023-03-14T00:03:44;12.90;97.40
5061;DHT22;2549;52.128;21.068;2023-03-14T00:06:11;12.80;97.50
5061;DHT22;2549;52.128;21.068;2023-03-14T00:08:39;12.80;97.60
5061;DHT22;2549;52.128;21.068;2023-03-14T00:11:09;12.70;97.60
5061;DHT22;2549;52.128;21.068;2023-03-14T00:13:36;12.70;97.50
5061;DHT22;2549;52.128;21.068;2023-03-14T00:16:07;12.70;97.50
5061;DHT22;2549;52.128;21.068;2023-03-14T00:18:35;12.70;97.50
5061;DHT22;2549;52.128;21.068;2023-03-14T00:21:03;12.70;97.50
5061;DHT22;2549;52.128;21.068;2023-03-14T00:23:32;12.60;97.50
5061;DHT22;2549;52.128;21.068;2023-03-14T00:26:04;12.60;97.50
5061;DHT22;2549;52.128;21.068;2023-03-14T00:28:31;12.60;97.40
5061;DHT22;2549;52.128;21.068;2023-03-14T00:30:58;12.50;97.40
5061;DHT22;2549;52.128;21.068;2023-03-14T00:33:25;12.50;97.30
5061;DHT22;2549;52.128;21.068;2023-03-14T00:35:58;12.50;97.20
5061;DHT22;2549;52.128;21.068;2023-03-14T00:38:26;12.50;97.30
5061;DHT22;2549;52.128;21.068;2023-03-14T00:40:54;12.50;97.10
5061;DHT22;2549;52.128;21.068;2023-03-14T00:43:21;12.50;97.20
5061;DHT22;2549;52.128;21.068;2023-03-14T00:45:52;12.50;97.10
5061;DHT22;2549;52.128;21.068;2023-03-14T00:48:20;12.50;97.00
5061;DHT22;2549;52.128;21.068;2023-03-14T00:50:47;12.50;96.90
5061;DHT22;2549;52.128;21.068;2023-03-14T00:53:14;12.40;96.80
5061;DHT22;2549;52.128;21.068;2023-03-14T00:55:42;12.40;96.80
5061;DHT22;2549;52.128;21.068;2023-03-14T00:58:10;12.40;96.70
5061;DHT22;2549;52.128;21.068;2023-03-14T01:00:38;12.40;96.60
5061;DHT22;2549;52.128;21.068;2023-03-14T01:03:05;12.40;96.60
5061;DHT22;2549;52.128;21.068;2023-03-14T01:05:33;12.40;96.60
5061;DHT22;2549;52.128;21.068;2023-03-14T01:08:00;12.40;96.50
5061;DHT22;2549;52.128;21.068;2023-03-14T01:10:27;12.30;96.40
5061;DHT22;2549;52.128;21.068;2023-03-14T01:12:54;12.30;96.30
5061;DHT22;2549;52.128;21.068;2023-03-14T01:15:21;12.30;96.40
5061;DHT22;2549;52.128;21.068;2023-03-14T01:17:48;12.30;96.30
5061;DHT22;2549;52.128;21.068;2023-03-14T01:20:15;12.30;96.10
5061;DHT22;2549;52.128;21.068;2023-03-14T01:22:43;12.30;96.10
5061;DHT22;2549;52.128;21.068;2023-03-14T01:25:16;12.40;96.10
5061;DHT22;2549;52.128;21.068;2023-03-14T01:27:43;12.40;95.90
5061;DHT22;2549;52.128;21.068;2023-03-14T01:30:11;12.40;95.80
5061;DHT22;2549;52.128;21.068;2023-03-14T01:32:39;12.30;95.70
5061;DHT22;2549;52.128;21.068;2023-03-14T01:35:07;12.40;95.80
5061;DHT22;2549;52.128;21.068;2023-03-14T01:37:34;12.40;95.70
5061;DHT22;2549;52.128;21.068;2023-03-14T01:40:00;12.30;95.60
5061;DHT22;2549;52.128;21.068;2023-03-14T01:42:27;12.30;95.60
5061;DHT22;2549;52.128;21.068;2023-03-14T01:44:59;12.30;95.60
5061;DHT22;2549;52.128;21.068;2023-03-14T01:47:27;12.30;95.40
5061;DHT22;2549;52.128;21.068;2023-03-14T01:49:59;12.30;95.40
5061;DHT22;2549;52.128;21.068;2023-03-14T01:52:38;12.30;95.50
5061;DHT22;2549;52.128;21.068;2023-03-14T01:55:28;12.20;95.40
5061;DHT22;2549;52.128;21.068;2023-03-14T01:58:03;12.20;95.50
5061;DHT22;2549;52.128;21.068;2023-03-14T02:00:31;12.20;95.50
5061;DHT22;2549;52.128;21.068;2023-03-14T02:03:07;12.20;95.40
5061;DHT22;2549;52.128;21.068;2023-03-14T02:05:39;12.20;95.40
5061;DHT22;2549;52.128;21.068;2023-03-14T02:08:10;12.20;95.30
5061;DHT22;2549;52.128;21.068;2023-03-14T02:10:41;12.20;95.20
5061;DHT22;2549;52.128;21.068;2023-03-14T02:13:09;12.10;95.10
5061;DHT22;2549;52.128;21.068;2023-03-14T02:15:38;12.10;95.10
5061;DHT22;2549;52.128;21.068;2023-03-14T02:18:06;12.10;95.00
5061;DHT22;2549;52.128;21.068;2023-03-14T02:23:03;12.10;94.90
5061;DHT22;2549;52.128;21.068;2023-03-14T02:25:42;12.00;94.90
5061;DHT22;2549;52.128;21.068;2023-03-14T02:28:10;12.00;94.90
5061;DHT22;2549;52.128;21.068;2023-03-14T02:30:37;12.00;94.90
5061;DHT22;2549;52.128;21.068;2023-03-14T02:33:08;12.00;94.80
5061;DHT22;2549;52.128;21.068;2023-03-14T02:38:55;12.00;94.80
5061;DHT22;2549;52.128;21.068;2023-03-14T02:41:13;12.00;94.70
5061;DHT22;2549;52.128;21.068;2023-03-14T02:43:40;12.00;94.70
5061;DHT22;2549;52.128;21.068;2023-03-14T02:46:10;12.00;94.70
5061;DHT22;2549;52.128;21.068;2023-03-14T02:48:43;12.00;94.60
5061;DHT22;2549;52.128;21.068;2023-03-14T02:51:11;12.00;94.60
5061;DHT22;2549;52.128;21.068;2023-03-14T02:53:38;12.00;94.60
5061;DHT22;2549;52.128;21.068;2023-03-14T02:56:08;12.00;94.40
5061;DHT22;2549;52.128;21.068;2023-03-14T02:58:36;12.00;94.40
5061;DHT22;2549;52.128;21.068;2023-03-14T03:01:03;12.00;94.40
5061;DHT22;2549;52.128;21.068;2023-03-14T03:03:30;12.00;94.40
5061;DHT22;2549;52.128;21.068;2023-03-14T03:05:57;12.00;94.30
5061;DHT22;2549;52.128;21.068;2023-03-14T03:08:26;12.00;94.30
5061;DHT22;2549;52.128;21.068;2023-03-14T03:10:54;12.00;94.20
5061;DHT22;2549;52.128;21.068;2023-03-14T03:13:21;12.00;94.20
5061;DHT22;2549;52.128;21.068;2023-03-14T03:15:47;12.00;94.20
5061;DHT22;2549;52.128;21.068;2023-03-14T03:18:14;12.00;94.20
5061;DHT22;2549;52.128;21.068;2023-03-14T03:20:41;12.00;94.30
5061;DHT22;2549;52.128;21.068;2023-03-14T03:23:08;11.90;94.20
5061;DHT22;2549;52.128;21.068;2023-03-14T03:25:35;11.90;94.30
5061;DHT22;2549;52.128;21.068;2023-03-14T03:28:02;11.90;94.30
5061;DHT22;2549;52.128;21.068;2023-03-14T03:30:38;11.90;94.20
5061;DHT22;2549;52.128;21.068;2023-03-14T03:33:05;11.90;94.30
5061;DHT22;2549;52.128;21.068;2023-03-14T03:35:32;11.90;94.20
5061;DHT22;2549;52.128;21.068;2023-03-14T03:37:59;11.90;94.20
5061;DHT22;2549;52.128;21.068;2023-03-14T03:40:26;11.80;94.00
5061;DHT22;2549;52.128;21.068;2023-03-14T03:42:53;11.80;94.10
5061;DHT22;2549;52.128;21.068;2023-03-14T03:45:20;11.80;94.10
5061;DHT22;2549;52.128;21.068;2023-03-14T03:47:47;11.80;94.20
5061;DHT22;2549;52.128;21.068;2023-03-14T03:50:14;11.80;94.20
5061;DHT22;2549;52.128;21.068;2023-03-14T03:52:40;11.70;94.10
5061;DHT22;2549;52.128;21.068;2023-03-14T03:55:08;11.70;94.10
5061;DHT22;2549;52.128;21.068;2023-03-14T03:57:35;11.70;94.20
5061;DHT22;2549;52.128;21.068;2023-03-14T04:00:03;11.70;94.10
5061;DHT22;2549;52.128;21.068;2023-03-14T04:02:31;11.70;94.20
5061;DHT22;2549;52.128;21.068;2023-03-14T04:04:59;11.70;94.20
5061;DHT22;2549;52.128;21.068;2023-03-14T04:07:25;11.70;94.10
5061;DHT22;2549;52.128;21.068;2023-03-14T04:09:52;11.70;94.10
5061;DHT22;2549;52.128;21.068;2023-03-14T04:12:19;11.60;94.30
5061;DHT22;2549;52.128;21.068;2023-03-14T04:14:46;11.60;94.00
5061;DHT22;2549;52.128;21.068;2023-03-14T04:17:13;11.60;94.00
5061;DHT22;2549;52.128;21.068;2023-03-14T04:19:40;11.60;94.10
5061;DHT22;2549;52.128;21.068;2023-03-14T04:22:07;11.60;94.00
5061;DHT22;2549;52.128;21.068;2023-03-14T04:24:34;11.50;93.90
5061;DHT22;2549;52.128;21.068;2023-03-14T04:27:01;11.50;94.00
5061;DHT22;2549;52.128;21.068;2023-03-14T04:29:28;11.50;93.90
5061;DHT22;2549;52.128;21.068;2023-03-14T04:31:55;11.50;93.90
5061;DHT22;2549;52.128;21.068;2023-03-14T04:34:21;11.50;93.80
5061;DHT22;2549;52.128;21.068;2023-03-14T04:36:48;11.50;93.90
5061;DHT22;2549;52.128;21.068;2023-03-14T04:39:15;11.50;93.80
5061;DHT22;2549;52.128;21.068;2023-03-14T04:41:42;11.50;93.80
5061;DHT22;2549;52.128;21.068;2023-03-14T04:44:10;11.40;93.80
5061;DHT22;2549;52.128;21.068;2023-03-14T04:46:37;11.40;93.80
5061;DHT22;2549;52.128;21.068;2023-03-14T04:49:04;11.40;93.90
5061;DHT22;2549;52.128;21.068;2023-03-14T04:51:31;11.40;93.90
5061;DHT22;2549;52.128;21.068;2023-03-14T04:53:57;11.50;93.90
5061;DHT22;2549;52.128;21.068;2023-03-14T04:56:24;11.50;93.90
5061;DHT22;2549;52.128;21.068;2023-03-14T04:58:52;11.50;94.10
5061;DHT22;2549;52.128;21.068;2023-03-14T05:01:18;11.50;93.80
5061;DHT22;2549;52.128;21.068;2023-03-14T05:03:45;11.50;93.80
5061;DHT22;2549;52.128;21.068;2023-03-14T05:06:12;11.50;93.80
5061;DHT22;2549;52.128;21.068;2023-03-14T05:08:39;11.50;93.70
5061;DHT22;2549;52.128;21.068;2023-03-14T05:11:06;11.50;93.70
5061;DHT22;2549;52.128;21.068;2023-03-14T05:13:32;11.50;93.70
5061;DHT22;2549;52.128;21.068;2023-03-14T05:16:07;11.50;93.80
5061;DHT22;2549;52.128;21.068;2023-03-14T05:18:35;11.60;93.80
5061;DHT22;2549;52.128;21.068;2023-03-14T05:21:02;11.60;93.80
5061;DHT22;2549;52.128;21.068;2023-03-14T05:23:29;11.60;93.60
5061;DHT22;2549;52.128;21.068;2023-03-14T05:25:56;11.60;93.60
5061;DHT22;2549;52.128;21.068;2023-03-14T05:28:23;11.60;93.80
5061;DHT22;2549;52.128;21.068;2023-03-14T05:30:50;11.60;93.70
5061;DHT22;2549;52.128;21.068;2023-03-14T05:33:17;11.60;93.80
5061;DHT22;2549;52.128;21.068;2023-03-14T05:35:43;11.60;93.70
5061;DHT22;2549;52.128;21.068;2023-03-14T05:38:10;11.60;93.70
5061;DHT22;2549;52.128;21.068;2023-03-14T05:40:37;11.60;93.60
5061;DHT22;2549;52.128;21.068;2023-03-14T05:43:04;11.60;93.50
5061;DHT22;2549;52.128;21.068;2023-03-14T05:45:31;11.60;93.60
5061;DHT22;2549;52.128;21.068;2023-03-14T05:48:01;11.60;93.60
5061;DHT22;2549;52.128;21.068;2023-03-14T05:50:28;11.60;93.60
5061;DHT22;2549;52.128;21.068;2023-03-14T05:52:54;11.50;93.60
5061;DHT22;2549;52.128;21.068;2023-03-14T05:55:21;11.50;93.70
5061;DHT22;2549;52.128;21.068;2023-03-14T05:57:48;11.50;93.60
5061;DHT22;2549;52.128;21.068;2023-03-14T06:00:15;11.50;93.70
5061;DHT22;2549;52.128;21.068;2023-03-14T06:02:42;11.50;93.70
5061;DHT22;2549;52.128;21.068;2023-03-14T06:05:09;11.50;93.60
5061;DHT22;2549;52.128;21.068;2023-03-14T06:07:36;11.60;93.60
5061;DHT22;2549;52.128;21.068;2023-03-14T06:10:03;11.60;93.60
5061;DHT22;2549;52.128;21.068;2023-03-14T06:12:30;11.60;93.60
5061;DHT22;2549;52.128;21.068;2023-03-14T06:14:57;11.60;93.60
5061;DHT22;2549;52.128;21.068;2023-03-14T06:17:24;11.60;93.70
5061;DHT22;2549;52.128;21.068;2023-03-14T06:19:51;11.70;93.70
5061;DHT22;2549;52.128;21.068;2023-03-14T06:22:17;11.70;93.80
5061;DHT22;2549;52.128;21.068;2023-03-14T06:24:45;11.70;93.70
5061;DHT22;2549;52.128;21.068;2023-03-14T06:27:12;11.80;93.90
5061;DHT22;2549;52.128;21.068;2023-03-14T06:29:39;11.80;93.80
5061;DHT22;2549;52.128;21.068;2023-03-14T06:32:06;11.80;93.50
5061;DHT22;2549;52.128;21.068;2023-03-14T06:34:33;11.90;93.60
5061;DHT22;2549;52.128;21.068;2023-03-14T06:36:59;11.90;93.60
5061;DHT22;2549;52.128;21.068;2023-03-14T06:39:26;11.90;93.50
5061;DHT22;2549;52.128;21.068;2023-03-14T06:41:53;11.90;93.50
5061;DHT22;2549;52.128;21.068;2023-03-14T06:44:20;11.90;93.50
5061;DHT22;2549;52.128;21.068;2023-03-14T06:46:46;12.00;93.50
5061;DHT22;2549;52.128;21.068;2023-03-14T06:49:13;12.00;93.50
5061;DHT22;2549;52.128;21.068;2023-03-14T06:51:40;12.00;93.40
5061;DHT22;2549;52.128;21.068;2023-03-14T06:54:07;12.10;93.50
5061;DHT22;2549;52.128;21.068;2023-03-14T06:56:34;12.10;93.40
5061;DHT22;2549;52.128;21.068;2023-03-14T06:59:00;12.10;93.40
5061;DHT22;2549;52.128;21.068;2023-03-14T07:01:28;12.20;93.50
5061;DHT22;2549;52.128;21.068;2023-03-14T07:03:56;12.20;93.50
5061;DHT22;2549;52.128;21.068;2023-03-14T07:06:23;12.20;93.30
5061;DHT22;2549;52.128;21.068;2023-03-14T07:08:51;12.30;93.30
5061;DHT22;2549;52.128;21.068;2023-03-14T07:11:18;12.30;93.40
5061;DHT22;2549;52.128;21.068;2023-03-14T07:13:45;12.40;93.60
5061;DHT22;2549;52.128;21.068;2023-03-14T07:16:12;12.40;93.60
5061;DHT22;2549;52.128;21.068;2023-03-14T07:18:39;12.50;93.60
5061;DHT22;2549;52.128;21.068;2023-03-14T07:21:06;12.60;93.50
5061;DHT22;2549;52.128;21.068;2023-03-14T07:23:33;12.60;93.40
5061;DHT22;2549;52.128;21.068;2023-03-14T07:26:01;12.70;93.50
5061;DHT22;2549;52.128;21.068;2023-03-14T07:28:28;12.70;93.40
5061;DHT22;2549;52.128;21.068;2023-03-14T07:30:55;12.80;93.30
5061;DHT22;2549;52.128;21.068;2023-03-14T07:33:22;12.80;93.30
5061;DHT22;2549;52.128;21.068;2023-03-14T07:35:49;12.80;93.30
5061;DHT22;2549;52.128;21.068;2023-03-14T07:38:17;12.90;93.30
5061;DHT22;2549;52.128;21.068;2023-03-14T07:40:47;12.90;93.40
5061;DHT22;2549;52.128;21.068;2023-03-14T07:43:13;13.00;93.30
5061;DHT22;2549;52.128;21.068;2023-03-14T07:45:40;13.00;93.50
5061;DHT22;2549;52.128;21.068;2023-03-14T07:48:08;13.00;93.30
5061;DHT22;2549;52.128;21.068;2023-03-14T07:50:36;13.00;93.20
5061;DHT22;2549;52.128;21.068;2023-03-14T07:53:03;13.10;93.20
5061;DHT22;2549;52.128;21.068;2023-03-14T07:55:30;13.20;93.10
5061;DHT22;2549;52.128;21.068;2023-03-14T07:57:57;13.30;93.00
5061;DHT22;2549;52.128;21.068;2023-03-14T08:00:24;13.40;93.00
5061;DHT22;2549;52.128;21.068;2023-03-14T08:02:50;13.40;92.80
5061;DHT22;2549;52.128;21.068;2023-03-14T08:05:17;13.40;93.10
5061;DHT22;2549;52.128;21.068;2023-03-14T08:07:44;13.50;93.10
5061;DHT22;2549;52.128;21.068;2023-03-14T08:10:11;13.60;93.10
5061;DHT22;2549;52.128;21.068;2023-03-14T08:12:42;13.70;92.90
5061;DHT22;2549;52.128;21.068;2023-03-14T08:15:09;13.70;92.70
5061;DHT22;2549;52.128;21.068;2023-03-14T08:17:36;13.70;92.70
5061;DHT22;2549;52.128;21.068;2023-03-14T08:20:03;13.90;92.50
5061;DHT22;2549;52.128;21.068;2023-03-14T08:22:33;13.90;92.60
5061;DHT22;2549;52.128;21.068;2023-03-14T08:25:00;13.90;92.50
5061;DHT22;2549;52.128;21.068;2023-03-14T08:27:27;14.00;92.70
5061;DHT22;2549;52.128;21.068;2023-03-14T08:29:53;14.10;92.80
5061;DHT22;2549;52.128;21.068;2023-03-14T08:32:20;14.10;92.70
5061;DHT22;2549;52.128;21.068;2023-03-14T08:34:49;14.10;92.80
5061;DHT22;2549;52.128;21.068;2023-03-14T08:37:16;14.10;92.80
5061;DHT22;2549;52.128;21.068;2023-03-14T08:39:53;14.20;92.50
5061;DHT22;2549;52.128;21.068;2023-03-14T08:42:20;14.20;92.40
5061;DHT22;2549;52.128;21.068;2023-03-14T08:44:47;14.30;92.40
5061;DHT22;2549;52.128;21.068;2023-03-14T08:47:13;14.30;92.50
5061;DHT22;2549;52.128;21.068;2023-03-14T08:49:40;14.40;92.50
5061;DHT22;2549;52.128;21.068;2023-03-14T08:52:07;14.40;92.30
5061;DHT22;2549;52.128;21.068;2023-03-14T08:54:34;14.40;92.20
5061;DHT22;2549;52.128;21.068;2023-03-14T08:57:01;14.50;92.50
5061;DHT22;2549;52.128;21.068;2023-03-14T08:59:28;14.50;92.50
5061;DHT22;2549;52.128;21.068;2023-03-14T09:01:55;14.60;92.40
5061;DHT22;2549;52.128;21.068;2023-03-14T09:04:22;14.60;92.10
5061;DHT22;2549;52.128;21.068;2023-03-14T09:06:48;14.70;92.20
5061;DHT22;2549;52.128;21.068;2023-03-14T09:09:15;14.70;92.10
5061;DHT22;2549;52.128;21.068;2023-03-14T09:11:42;14.80;92.00
5061;DHT22;2549;52.128;21.068;2023-03-14T09:14:09;14.80;91.90
5061;DHT22;2549;52.128;21.068;2023-03-14T09:16:36;14.80;92.00
5061;DHT22;2549;52.128;21.068;2023-03-14T09:19:03;14.90;91.80
5061;DHT22;2549;52.128;21.068;2023-03-14T09:21:30;15.00;92.10
5061;DHT22;2549;52.128;21.068;2023-03-14T09:23:56;15.00;91.90
5061;DHT22;2549;52.128;21.068;2023-03-14T09:26:23;15.10;91.80
5061;DHT22;2549;52.128;21.068;2023-03-14T09:28:50;15.10;91.90
5061;DHT22;2549;52.128;21.068;2023-03-14T09:31:17;15.10;92.10
5061;DHT22;2549;52.128;21.068;2023-03-14T09:33:44;15.20;92.00
5061;DHT22;2549;52.128;21.068;2023-03-14T09:36:11;15.20;92.00
5061;DHT22;2549;52.128;21.068;2023-03-14T09:38:38;15.30;91.60
5061;DHT22;2549;52.128;21.068;2023-03-14T09:41:27;15.30;91.80
5061;DHT22;2549;52.128;21.068;2023-03-14T09:44:14;15.40;91.70
5061;DHT22;2549;52.128;21.068;2023-03-14T09:46:44;15.50;91.40
5061;DHT22;2549;52.128;21.068;2023-03-14T09:49:37;15.60;91.30
5061;DHT22;2549;52.128;21.068;2023-03-14T09:52:07;15.60;91.60
5061;DHT22;2549;52.128;21.068;2023-03-14T09:54:50;15.70;91.30
5061;DHT22;2549;52.128;21.068;2023-03-14T09:57:19;15.70;91.30
5061;DHT22;2549;52.128;21.068;2023-03-14T09:59:48;15.80;91.40
5061;DHT22;2549;52.128;21.068;2023-03-14T10:02:23;15.90;91.30
5061;DHT22;2549;52.128;21.068;2023-03-14T10:04:52;16.00;91.00
5061;DHT22;2549;52.128;21.068;2023-03-14T10:07:30;16.00;90.50
5061;DHT22;2549;52.128;21.068;2023-03-14T10:09:57;16.00;90.60
5061;DHT22;2549;52.128;21.068;2023-03-14T10:12:36;16.10;90.60
5061;DHT22;2549;52.128;21.068;2023-03-14T10:15:07;16.20;90.70
5061;DHT22;2549;52.128;21.068;2023-03-14T10:17:43;16.20;90.60
5061;DHT22;2549;52.128;21.068;2023-03-14T10:20:35;16.20;90.50
5061;DHT22;2549;52.128;21.068;2023-03-14T10:23:04;16.20;90.20
5061;DHT22;2549;52.128;21.068;2023-03-14T10:25:36;16.20;90.20
5061;DHT22;2549;52.128;21.068;2023-03-14T10:28:04;16.20;90.20
5061;DHT22;2549;52.128;21.068;2023-03-14T10:30:45;16.30;90.10
5061;DHT22;2549;52.128;21.068;2023-03-14T10:33:29;16.40;90.00
5061;DHT22;2549;52.128;21.068;2023-03-14T10:36:01;16.40;89.80
5061;DHT22;2549;52.128;21.068;2023-03-14T10:38:31;16.50;90.00
5061;DHT22;2549;52.128;21.068;2023-03-14T10:40:58;16.60;89.80
5061;DHT22;2549;52.128;21.068;2023-03-14T10:43:31;16.60;90.10
5061;DHT22;2549;52.128;21.068;2023-03-14T10:46:19;16.70;89.70
5061;DHT22;2549;52.128;21.068;2023-03-14T10:48:46;16.70;89.50
5061;DHT22;2549;52.128;21.068;2023-03-14T10:51:30;16.70;89.60
5061;DHT22;2549;52.128;21.068;2023-03-14T10:54:02;16.70;89.60
5061;DHT22;2549;52.128;21.068;2023-03-14T10:56:35;16.80;89.90
5061;DHT22;2549;52.128;21.068;2023-03-14T10:59:07;16.80;90.10
5061;DHT22;2549;52.128;21.068;2023-03-14T11:01:55;16.70;89.50
5061;DHT22;2549;52.128;21.068;2023-03-14T11:07:42;16.70;89.50
5061;DHT22;2549;52.128;21.068;2023-03-14T11:10:33;16.70;89.50
5061;DHT22;2549;52.128;21.068;2023-03-14T11:16:09;16.70;89.50
5061;DHT22;2549;52.128;21.068;2023-03-14T11:27:25;16.90;90.10
5061;DHT22;2549;52.128;21.068;2023-03-14T11:30:00;16.90;89.40
5061;DHT22;2549;52.128;21.068;2023-03-14T11:32:46;17.00;89.70
5061;DHT22;2549;52.128;21.068;2023-03-14T11:35:24;17.10;89.70
5061;DHT22;2549;52.128;21.068;2023-03-14T11:38:50;17.10;90.00
5061;DHT22;2549;52.128;21.068;2023-03-14T11:40:51;17.00;89.40
5061;DHT22;2549;52.128;21.068;2023-03-14T11:43:34;16.90;88.60
5061;DHT22;2549;52.128;21.068;2023-03-14T11:46:11;16.90;89.20
5061;DHT22;2549;52.128;21.068;2023-03-14T11:51:28;16.90;88.90
5061;DHT22;2549;52.128;21.068;2023-03-14T11:54:15;16.90;89.10
5061;DHT22;2549;52.128;21.068;2023-03-14T12:08:44;16.80;89.10
5061;DHT22;2549;52.128;21.068;2023-03-14T12:10:49;16.80;89.50
5061;DHT22;2549;52.128;21.068;2023-03-14T12:13:17;16.90;89.70
5061;DHT22;2549;52.128;21.068;2023-03-14T12:15:56;16.90;90.30
5061;DHT22;2549;52.128;21.068;2023-03-14T12:18:29;17.00;89.90
5061;DHT22;2549;52.128;21.068;2023-03-14T12:20:58;17.00;90.00
5061;DHT22;2549;52.128;21.068;2023-03-14T12:23:27;17.10;90.10
5061;DHT22;2549;52.128;21.068;2023-03-14T12:26:14;17.00;89.70
5061;DHT22;2549;52.128;21.068;2023-03-14T12:42:54;17.00;90.00
5061;DHT22;2549;52.128;21.068;2023-03-14T12:45:34;16.90;90.00
5061;DHT22;2549;52.128;21.068;2023-03-14T12:48:09;17.00;90.20
5061;DHT22;2549;52.128;21.068;2023-03-14T12:50:44;17.00;90.20
5061;DHT22;2549;52.128;21.068;2023-03-14T12:59:16;16.90;89.80
5061;DHT22;2549;52.128;21.068;2023-03-14T13:01:52;16.80;90.10
5061;DHT22;2549;52.128;21.068;2023-03-14T13:04:44;16.80;90.10
5061;DHT22;2549;52.128;21.068;2023-03-14T13:07:33;16.80;90.20
5061;DHT22;2549;52.128;21.068;2023-03-14T13:15:34;16.70;91.40
5061;DHT22;2549;52.128;21.068;2023-03-14T13:18:35;16.60;92.30
5061;DHT22;2549;52.128;21.068;2023-03-14T13:21:28;16.50;92.60
5061;DHT22;2549;52.128;21.068;2023-03-14T13:24:05;16.50;92.80
5061;DHT22;2549;52.128;21.068;2023-03-14T13:26:36;16.40;93.90
5061;DHT22;2549;52.128;21.068;2023-03-14T13:29:21;16.40;94.50
5061;DHT22;2549;52.128;21.068;2023-03-14T13:31:51;16.40;94.70
5061;DHT22;2549;52.128;21.068;2023-03-14T13:34:19;16.40;95.20
5061;DHT22;2549;52.128;21.068;2023-03-14T13:36:47;16.30;95.50
5061;DHT22;2549;52.128;21.068;2023-03-14T13:39:22;16.30;95.60
5061;DHT22;2549;52.128;21.068;2023-03-14T13:41:59;16.30;95.80
5061;DHT22;2549;52.128;21.068;2023-03-14T13:44:35;16.30;96.10
5061;DHT22;2549;52.128;21.068;2023-03-14T13:47:04;16.30;96.10
5061;DHT22;2549;52.128;21.068;2023-03-14T13:49:33;16.20;96.50
5061;DHT22;2549;52.128;21.068;2023-03-14T13:52:03;16.20;96.60
5061;DHT22;2549;52.128;21.068;2023-03-14T13:54:31;16.20;96.80
5061;DHT22;2549;52.128;21.068;2023-03-14T13:57:03;16.10;96.90
5061;DHT22;2549;52.128;21.068;2023-03-14T13:59:32;16.10;97.10
5061;DHT22;2549;52.128;21.068;2023-03-14T14:02:13;16.00;97.20
5061;DHT22;2549;52.128;21.068;2023-03-14T14:04:43;15.90;97.60
5061;DHT22;2549;52.128;21.068;2023-03-14T14:07:15;15.80;97.10
5061;DHT22;2549;52.128;21.068;2023-03-14T14:09:48;15.80;97.30
5061;DHT22;2549;52.128;21.068;2023-03-14T14:12:31;15.70;97.60
5061;DHT22;2549;52.128;21.068;2023-03-14T14:17:33;15.60;97.90
5061;DHT22;2549;52.128;21.068;2023-03-14T14:20:07;15.60;98.00
5061;DHT22;2549;52.128;21.068;2023-03-14T14:22:35;15.60;98.30
5061;DHT22;2549;52.128;21.068;2023-03-14T14:25:03;15.60;98.70
5061;DHT22;2549;52.128;21.068;2023-03-14T14:27:37;15.50;98.70
5061;DHT22;2549;52.128;21.068;2023-03-14T14:32:49;15.50;99.20
5061;DHT22;2549;52.128;21.068;2023-03-14T14:35:34;15.50;99.50
5061;DHT22;2549;52.128;21.068;2023-03-14T14:38:03;15.50;99.60
5061;DHT22;2549;52.128;21.068;2023-03-14T14:40:45;15.50;99.80
5061;DHT22;2549;52.128;21.068;2023-03-14T14:43:17;15.50;99.90
5061;DHT22;2549;52.128;21.068;2023-03-14T14:45:48;15.40;99.90
5061;DHT22;2549;52.128;21.068;2023-03-14T14:48:17;15.40;99.90
5061;DHT22;2549;52.128;21.068;2023-03-14T14:55:51;15.30;99.90
5061;DHT22;2549;52.128;21.068;2023-03-14T14:58:24;15.30;99.90
5061;DHT22;2549;52.128;21.068;2023-03-14T15:03:32;15.30;99.90
5061;DHT22;2549;52.128;21.068;2023-03-14T15:06:00;15.30;99.90
5061;DHT22;2549;52.128;21.068;2023-03-14T15:08:27;15.20;99.90
5061;DHT22;2549;52.128;21.068;2023-03-14T15:10:55;15.10;99.90
5061;DHT22;2549;52.128;21.068;2023-03-14T15:13:23;15.10;99.90
5061;DHT22;2549;52.128;21.068;2023-03-14T15:15:51;15.10;99.90
5061;DHT22;2549;52.128;21.068;2023-03-14T15:18:24;15.10;99.90
5061;DHT22;2549;52.128;21.068;2023-03-14T15:20:53;15.00;99.90
5061;DHT22;2549;52.128;21.068;2023-03-14T15:23:21;15.00;99.90
5061;DHT22;2549;52.128;21.068;2023-03-14T15:25:48;15.00;99.90
5061;DHT22;2549;52.128;21.068;2023-03-14T15:28:25;15.00;99.90
5061;DHT22;2549;52.128;21.068;2023-03-14T15:30:54;14.90;99.90
5061;DHT22;2549;52.128;21.068;2023-03-14T15:33:23;14.90;99.90
5061;DHT22;2549;52.128;21.068;2023-03-14T15:35:51;14.90;99.90
5061;DHT22;2549;52.128;21.068;2023-03-14T15:38:20;14.90;99.90
5061;DHT22;2549;52.128;21.068;2023-03-14T15:40:50;14.90;99.90
5061;DHT22;2549;52.128;21.068;2023-03-14T15:43:17;14.90;99.90
5061;DHT22;2549;52.128;21.068;2023-03-14T15:45:45;14.90;99.90
5061;DHT22;2549;52.128;21.068;2023-03-14T15:48:15;14.90;99.90
5061;DHT22;2549;52.128;21.068;2023-03-14T15:50:43;14.90;99.90
5061;DHT22;2549;52.128;21.068;2023-03-14T15:53:11;14.90;99.90
5061;DHT22;2549;52.128;21.068;2023-03-14T15:55:38;14.90;99.90
5061;DHT22;2549;52.128;21.068;2023-03-14T15:58:05;14.90;99.90
5061;DHT22;2549;52.128;21.068;2023-03-14T16:00:32;14.90;99.90
5061;DHT22;2549;52.128;21.068;2023-03-14T16:02:59;14.90;99.90
5061;DHT22;2549;52.128;21.068;2023-03-14T16:05:26;14.90;99.90
5061;DHT22;2549;52.128;21.068;2023-03-14T16:10:39;14.90;99.90
5061;DHT22;2549;52.128;21.068;2023-03-14T16:13:09;14.90;99.90
5061;DHT22;2549;52.128;21.068;2023-03-14T16:15:51;14.90;99.90
5061;DHT22;2549;52.128;21.068;2023-03-14T16:19:16;14.90;99.90
5061;DHT22;2549;52.128;21.068;2023-03-14T16:22:04;14.90;99.90
5061;DHT22;2549;52.128;21.068;2023-03-14T16:24:31;14.90;99.90
5061;DHT22;2549;52.128;21.068;2023-03-14T16:26:57;14.80;99.90
5061;DHT22;2549;52.128;21.068;2023-03-14T16:29:24;14.90;99.90
5061;DHT22;2549;52.128;21.068;2023-03-14T16:31:51;14.90;99.90
5061;DHT22;2549;52.128;21.068;2023-03-14T16:34:18;14.80;99.90
5061;DHT22;2549;52.128;21.068;2023-03-14T16:36:45;14.80;99.90
5061;DHT22;2549;52.128;21.068;2023-03-14T16:39:13;14.80;99.90
5061;DHT22;2549;52.128;21.068;2023-03-14T16:41:40;14.80;99.90
5061;DHT22;2549;52.128;21.068;2023-03-14T16:44:07;14.80;99.90
5061;DHT22;2549;52.128;21.068;2023-03-14T16:46:34;14.90;99.90
5061;DHT22;2549;52.128;21.068;2023-03-14T16:49:02;14.90;99.90
5061;DHT22;2549;52.128;21.068;2023-03-14T16:51:29;14.80;99.90
5061;DHT22;2549;52.128;21.068;2023-03-14T16:53:56;14.80;99.90
5061;DHT22;2549;52.128;21.068;2023-03-14T16:56:24;14.80;99.90
5061;DHT22;2549;52.128;21.068;2023-03-14T16:58:50;14.80;99.90
5061;DHT22;2549;52.128;21.068;2023-03-14T17:01:17;14.80;99.90
5061;DHT22;2549;52.128;21.068;2023-03-14T17:03:47;14.80;99.90
5061;DHT22;2549;52.128;21.068;2023-03-14T17:06:17;14.80;99.90
5061;DHT22;2549;52.128;21.068;2023-03-14T17:08:44;14.70;99.90
5061;DHT22;2549;52.128;21.068;2023-03-14T17:11:11;14.70;99.90
5061;DHT22;2549;52.128;21.068;2023-03-14T17:13:38;14.70;99.90
5061;DHT22;2549;52.128;21.068;2023-03-14T17:16:05;14.70;99.90
5061;DHT22;2549;52.128;21.068;2023-03-14T17:18:33;14.70;99.80